EIKNEISG

Guest
Details From EIKN - Ireland West Airport Knock
To EISG - Sligo
Flight Number -
Tags generated
Created
Modified
Stats Distance 24 nm / 44 km
Max Altitude 0 ft / 0 m
Waypoints 3
Social Downloads 4
Likes 0
Share

Download

Looking for another format? Having issues loading an existing format? Contact us
Advertisement - Login to hide

Notes

Basic altitude profile: - Ascent Rate: 2500ft/min - Ascent Speed: 250kts - Cruise Altitude: 35000ft - Cruise Speed: 420kts - Descent Rate: 1500ft/min - Descent Speed: 250kts Options: - Use NATs: yes - Use PACOTS: yes - Use low airways: yes - Use high airways: yes

Route

EIKN DONOX EISG

ID Type Via Altitude (ft/m) Position (lat/lon) Dist (leg/tot) Name
O EIKN APT - 0 / 0 53.91031 / -8.81847 - / 0 nm Ireland West Airport Knock
DONOX FIX - 0 / 0 53.91320 / -8.81843 0 / 0 nm
O EISG APT - 0 / 0 54.28021 / -8.59920 23 / 23 nm Sligo

Altitude Profile

Advertisement - Login to hide

EIKN

Details ICAO EIKN (NOC)
Name Ireland West
Region Ireland
Timezone Europe/Dublin (UTC+1.0)
Stats Elevation 665 ft / 203 m (AMSL)
Location 53.910300° -8.818110°
Runways 1
Magnetic Variation 3.541° W

METAR

EIKN 041300Z 24005KT 200V330 6000 -SHRA FEW016 FEW021CB SCT023 BKN030 17/13 Q1009 TEMPO 4000

Decode

TAF

TAF AMD TAF AMD EIKN 041250Z 0412/0512 21007KT 9999 FEW015 SCT020 TEMPO 0412/0414 4000 -SHRA SCT020CB BECMG 0415/0417 24010KT BECMG 0418/0420 18008KT PROB30 TEMPO 0500/0503 -RA BKN010 BECMG 0503/0505 14017G28KT 3000 -RA BR SCT002 BKN004 TEMPO 0503/0508 1500 RA BKN002 PROB40 TEMPO 0504/0508 0300 RADZ FG BKN001 BECMG 0510/0512 16010KT 4000 SHRA BKN005 SCT020CB

Decode

Departure Runways

ID Width Length Bearing (true/mag) Surface Threshold Overrun Markings Lighting
08 148 ft / 45 m 7,684 ft / 2,342 m 78.70° / 82.24° ASPHALT 502 ft / 153 m 0 ft / 0 m PREC-APP EDGE THRESHOLD SALS
26 148 ft / 45 m 7,684 ft / 2,342 m 258.73° / 262.27° ASPHALT 157 ft / 48 m 0 ft / 0 m PREC-APP EDGE THRESHOLD CALVERT-ILS

EISG

Details ICAO EISG (SXL)
Name Sligo
Region Ireland
Timezone Europe/Dublin (UTC+1.0)
Stats Elevation 11 ft / 3 m (AMSL)
Location 54.280200° -8.599220°
Runways 1
Magnetic Variation 3.524° W

METAR

EISG 041300Z 31005KT 9999 FEW029 SCT037 BKN043 18/12 Q1009

Decode

TAF

Not found

Destination Runways

ID Width Length Bearing (true/mag) Surface Threshold Overrun Markings Lighting
11 98 ft / 30 m 3,923 ft / 1,196 m 100.37° / 103.90° ASPHALT 131 ft / 40 m 0 ft / 0 m APP EDGE THRESHOLD REIL-UNI
29 98 ft / 30 m 3,923 ft / 1,196 m 280.39° / 283.91° ASPHALT 128 ft / 39 m 0 ft / 0 m APP EDGE THRESHOLD ODALS REIL-UNI

Popular Alternatives